Terminal Aerodrome Forecast
Issued by NWS

Home | Current Version | Previous Version | Text Only | Print | Product List | Glossary On
Versions: 1 2 3 4 5 6 7 8 9 10 11 12 13 14 15 16
920
FTUS42 TJSJ 092347
TAFJSJ
TAF
TJSJ 092347Z 1000/1024 11007KT P6SM SCT025 SCT050
     FM101300 09015KT P6SM FEW030 SCT050
     FM102300 10005KT P6SM FEW030=

USA.gov is the U.S. government's official web portal to all federal, state and local government web resources and services.